createdAt,value
2022-10-24T00:01:39.449Z,94.25
2022-10-24T00:04:27.642Z,94.18
2022-10-24T00:06:54.050Z,94.49
2022-10-24T00:09:20.476Z,94.37
2022-10-24T00:18:54.778Z,93.85
2022-10-24T00:25:41.771Z,94.23
2022-10-24T00:31:59.672Z,94.58
2022-10-24T00:34:26.148Z,94.39
2022-10-24T00:36:52.642Z,94.62
2022-10-24T00:39:45.545Z,95.08
2022-10-24T00:51:40.476Z,94.64
2022-10-24T00:58:27.366Z,94.69
2022-10-24T01:52:27.298Z,90.06
2022-10-24T02:03:52.510Z,88.78
2022-10-24T02:22:17.482Z,86.95
2022-10-24T02:40:43.165Z,86.53
2022-10-24T03:12:17.200Z,85.40
2022-10-24T03:38:08.771Z,84.87
2022-10-24T03:52:49.449Z,83.96
2022-10-24T04:01:26.513Z,82.96
2022-10-24T04:14:04.447Z,81.81
2022-10-24T04:21:49.483Z,81.71
2022-10-24T04:37:15.646Z,80.99
2022-10-24T04:44:04.602Z,80.95
2022-10-24T05:01:51.644Z,80.54
2022-10-24T05:05:19.412Z,80.58
2022-10-24T05:11:41.889Z,80.43
2022-10-24T05:33:48.683Z,80.97
2022-10-24T05:44:50.447Z,80.15
2022-10-24T05:51:33.705Z,79.55
2022-10-24T11:40:03.093Z,74.74
2022-10-24T11:59:02.541Z,81.20
2022-10-24T12:05:50.349Z,80.06
2022-10-24T12:20:50.938Z,78.90
2022-10-24T12:44:33.687Z,77.20
2022-10-24T13:09:58.459Z,79.83
2022-10-24T13:13:05.083Z,80.86
2022-10-24T13:23:25.186Z,82.85
2022-10-24T13:30:28.460Z,83.83
2022-10-24T14:15:35.815Z,85.27
2022-10-24T15:31:21.407Z,83.97
2022-10-24T15:33:48.736Z,83.55
2022-10-24T16:22:59.654Z,86.11
2022-10-24T16:30:04.466Z,86.41
2022-10-24T16:42:05.261Z,87.29
2022-10-24T17:19:41.752Z,90.68
2022-10-24T18:51:55.619Z,93.88
2022-10-24T18:54:22.547Z,93.92
2022-10-24T18:56:50.663Z,94.18
2022-10-24T18:59:21.501Z,93.86
2022-10-24T19:10:04.661Z,93.94
2022-10-24T19:16:30.261Z,94.28
2022-10-24T19:23:17.758Z,94.42
2022-10-24T19:25:44.724Z,94.80
2022-10-24T19:28:15.182Z,94.90
2022-10-24T19:30:42.382Z,95.36
2022-10-24T19:37:57.393Z,95.16
2022-10-24T19:40:23.860Z,95.70
2022-10-24T19:42:50.744Z,95.76
2022-10-24T19:45:28.603Z,95.98
2022-10-24T19:47:55.633Z,95.89
2022-10-24T19:50:22.311Z,95.84
2022-10-24T19:52:48.770Z,96.34
2022-10-24T19:55:17.539Z,96.14
2022-10-24T19:57:44.508Z,96.73
2022-10-24T20:00:31.527Z,96.82
2022-10-24T20:06:48.544Z,96.86
2022-10-24T20:09:15.099Z,97.10
2022-10-24T20:11:41.530Z,96.96
2022-10-24T20:14:08.013Z,97.23
2022-10-24T20:16:34.628Z,97.40
2022-10-24T20:19:01.392Z,97.39
2022-10-24T20:21:27.900Z,97.53
2022-10-24T20:23:54.419Z,97.56
2022-10-24T20:26:24.704Z,97.75
2022-10-24T20:28:53.062Z,98.08
2022-10-24T20:31:31.757Z,98.14
2022-10-24T20:34:05.101Z,98.12
2022-10-24T20:36:35.206Z,98.32
2022-10-24T20:39:01.840Z,98.57
2022-10-24T20:41:29.088Z,98.75
2022-10-24T20:43:56.125Z,98.86
2022-10-24T20:46:23.254Z,98.97
2022-10-24T20:48:50.216Z,98.77
2022-10-24T20:51:19.299Z,98.91
2022-10-24T20:53:46.370Z,99.10
2022-10-24T21:00:08.408Z,99.06
2022-10-24T21:02:36.660Z,99.28
2022-10-24T21:05:05.052Z,99.39
2022-10-24T21:07:32.157Z,99.45
2022-10-24T21:09:59.214Z,99.60
2022-10-24T21:12:25.703Z,99.50
2022-10-24T21:14:52.335Z,99.57
2022-10-24T21:17:19.231Z,99.73
2022-10-24T21:19:45.729Z,99.73
2022-10-24T21:22:12.205Z,99.66
2022-10-24T21:24:38.836Z,99.67
2022-10-24T21:27:05.367Z,99.60
2022-10-24T21:29:33.689Z,99.67
2022-10-24T21:32:00.797Z,99.69
2022-10-24T21:34:30.099Z,99.67
2022-10-24T21:36:59.823Z,99.53
2022-10-24T21:39:26.267Z,99.52
2022-10-24T21:41:52.743Z,99.24
2022-10-24T21:45:22.025Z,99.76
2022-10-24T21:47:48.451Z,99.69
2022-10-24T21:50:14.894Z,99.62
2022-10-24T21:52:41.339Z,99.94
2022-10-24T21:55:08.105Z,99.60
2022-10-24T21:57:34.539Z,99.88
2022-10-24T22:00:05.152Z,100.00
2022-10-24T22:03:33.362Z,99.93
2022-10-24T22:05:59.806Z,99.83
2022-10-24T22:08:26.331Z,100.00
2022-10-24T22:11:00.345Z,100.00
2022-10-24T22:13:27.934Z,99.83
2022-10-24T22:15:55.297Z,99.93
2022-10-24T22:18:23.182Z,99.74
2022-10-24T22:20:49.896Z,100.00
2022-10-24T22:23:16.397Z,99.75
2022-10-24T22:25:43.491Z,99.87
2022-10-24T22:28:10.730Z,99.86
2022-10-24T22:30:38.756Z,99.81
2022-10-24T22:33:06.984Z,100.00
2022-10-24T22:35:34.023Z,99.79
2022-10-24T22:38:00.788Z,99.86
2022-10-24T22:40:29.939Z,99.66
2022-10-24T22:42:57.427Z,99.92
2022-10-24T22:45:24.311Z,99.60
2022-10-24T22:47:56.579Z,99.73
2022-10-24T22:50:45.898Z,99.66
2022-10-24T22:53:14.056Z,99.36
2022-10-24T22:56:41.292Z,99.66
2022-10-24T22:59:08.073Z,99.45
2022-10-24T23:01:53.423Z,99.38
2022-10-24T23:04:35.096Z,99.19
2022-10-24T23:07:26.689Z,99.49
2022-10-24T23:09:54.195Z,99.53
2022-10-24T23:12:22.903Z,99.64
2022-10-24T23:14:50.655Z,99.78
2022-10-24T23:18:18.605Z,99.48
2022-10-24T23:23:41.727Z,99.83
2022-10-24T23:26:19.413Z,100.00
2022-10-24T23:29:11.653Z,99.78
2022-10-24T23:31:38.306Z,99.65
2022-10-24T23:34:05.080Z,99.57
2022-10-24T23:36:31.988Z,99.56
2022-10-24T23:38:58.920Z,99.55
2022-10-24T23:41:26.090Z,99.46
2022-10-24T23:43:52.972Z,99.37
2022-10-24T23:46:31.874Z,99.72
2022-10-24T23:49:14.478Z,99.41
2022-10-24T23:51:53.094Z,99.41
2022-10-24T23:54:26.195Z,99.28
2022-10-24T23:56:52.994Z,99.39
2022-10-24T23:59:19.884Z,99.40
